Time;durP1;ratioP1;P1;durP2;ratioP2;P2;SDS_P1;SDS_P2;PMS_P1;PMS_P2;Temp;Humidity;BMP_temperature;BMP_pressure;BME280_temperature;BME280_humidity;BME280_pressure;Samples;Min_cycle;Max_cycle;Signal;HPM_P1;HPM_P2
2022/10/08 00:06:41;;;;;;;15.60;10.00;;;;;;;13.04;100.00;100597.28;20818363;28;20052;-77
2022/10/08 00:16:42;;;;;;;16.17;9.63;;;;;;;13.12;100.00;100593.59;20811336;28;20045;-77
2022/10/08 00:26:44;;;;;;;17.73;10.02;;;;;;;13.18;100.00;100596.09;20831067;28;20143;-77
2022/10/08 00:36:46;;;;;;;15.05;9.63;;;;;;;13.17;100.00;100596.97;20812076;28;20582;-77
2022/10/08 00:46:47;;;;;;;17.33;8.45;;;;;;;13.24;100.00;100588.09;20814980;28;20049;-77
2022/10/08 00:56:48;;;;;;;16.90;9.00;;;;;;;13.49;100.00;100591.00;20828946;28;20465;-77
2022/10/08 01:06:50;;;;;;;20.70;8.32;;;;;;;13.63;100.00;100582.75;20810163;28;20041;-77
2022/10/08 01:16:53;;;;;;;18.65;8.35;;;;;;;13.69;100.00;100580.81;20818317;28;20045;-77
2022/10/08 01:26:54;;;;;;;14.32;7.88;;;;;;;13.81;100.00;100580.53;20827843;28;20049;-76
2022/10/08 01:36:55;;;;;;;13.25;7.45;;;;;;;13.93;100.00;100581.09;20824642;28;20040;-76
2022/10/08 01:46:58;;;;;;;11.15;7.15;;;;;;;13.89;100.00;100584.69;20831768;28;20053;-77
2022/10/08 01:57:00;;;;;;;11.60;7.30;;;;;;;14.03;100.00;100579.94;20824620;28;20099;-77
2022/10/08 02:07:01;;;;;;;14.93;8.32;;;;;;;14.01;100.00;100581.75;20828096;28;20457;-77
2022/10/08 02:17:02;;;;;;;15.20;7.93;;;;;;;14.15;100.00;100578.75;20822713;28;20064;-77
2022/10/08 02:27:04;;;;;;;17.58;7.95;;;;;;;14.29;100.00;100587.13;20798425;28;20041;-77
2022/10/08 02:37:05;;;;;;;14.70;8.40;;;;;;;14.19;100.00;100580.41;20807750;28;20114;-77
2022/10/08 02:47:07;;;;;;;15.18;8.07;;;;;;;14.01;100.00;100593.16;20820746;28;20054;-77
2022/10/08 02:57:08;;;;;;;14.80;7.75;;;;;;;14.04;100.00;100598.34;20819601;28;20045;-77
2022/10/08 03:07:12;;;;;;;15.45;7.90;;;;;;;14.05;100.00;100617.63;20805683;28;20613;-77
2022/10/08 03:17:13;;;;;;;14.48;6.82;;;;;;;13.89;100.00;100611.88;20808416;28;20045;-76
2022/10/08 03:27:15;;;;;;;16.35;7.82;;;;;;;13.88;100.00;100615.44;20831831;28;20478;-76
2022/10/08 03:37:16;;;;;;;14.90;7.70;;;;;;;13.66;100.00;100636.19;20804446;28;20111;-77
2022/10/08 03:47:17;;;;;;;13.65;7.10;;;;;;;13.68;100.00;100641.41;20827686;28;20048;-77
2022/10/08 03:57:19;;;;;;;12.52;6.50;;;;;;;13.60;100.00;100660.84;20795528;28;20041;-77
2022/10/08 04:07:20;;;;;;;12.93;6.78;;;;;;;13.55;100.00;100667.97;20814927;28;20049;-77
2022/10/08 04:17:21;;;;;;;13.77;6.90;;;;;;;13.46;100.00;100684.00;20790430;28;20487;-77
2022/10/08 04:27:23;;;;;;;13.20;7.03;;;;;;;13.30;100.00;100693.13;20814247;28;20041;-77
2022/10/08 04:37:24;;;;;;;13.45;6.68;;;;;;;13.02;100.00;100680.53;20838034;28;20191;-76
2022/10/08 04:47:25;;;;;;;14.35;6.82;;;;;;;12.80;100.00;100681.91;20811362;28;20421;-76
2022/10/08 04:57:27;;;;;;;13.45;6.93;;;;;;;12.58;100.00;100700.72;20800893;28;20041;-77
2022/10/08 05:07:28;;;;;;;12.23;7.22;;;;;;;12.44;100.00;100705.34;20844489;28;20099;-78
2022/10/08 05:17:29;;;;;;;17.30;7.82;;;;;;;12.30;100.00;100695.09;20849583;28;20111;-78
2022/10/08 05:27:31;;;;;;;15.68;7.72;;;;;;;12.12;100.00;100708.56;20842009;28;20041;-77
2022/10/08 05:37:32;;;;;;;12.65;7.75;;;;;;;11.99;100.00;100714.91;20853781;28;20049;-78
2022/10/08 05:47:33;;;;;;;22.10;8.10;;;;;;;11.86;100.00;100723.88;20824031;28;20605;-78
2022/10/08 05:57:35;;;;;;;14.68;8.18;;;;;;;11.79;100.00;100744.06;20817389;28;20038;-77
2022/10/08 06:07:36;;;;;;;16.08;8.30;;;;;;;11.76;100.00;100757.22;20816004;28;20045;-77
2022/10/08 06:17:37;;;;;;;14.25;9.02;;;;;;;11.74;100.00;100773.00;20834414;28;20073;-77
2022/10/08 06:27:39;;;;;;;14.60;7.35;;;;;;;11.74;100.00;100787.88;20824495;28;20045;-77
2022/10/08 06:37:40;;;;;;;16.95;8.65;;;;;;;11.83;100.00;100790.34;20826625;28;20072;-77
2022/10/08 06:47:41;;;;;;;22.80;11.07;;;;;;;11.93;100.00;100807.72;20826844;28;20049;-77
2022/10/08 06:57:43;;;;;;;17.08;9.07;;;;;;;12.00;100.00;100814.59;20821959;28;20095;-77
2022/10/08 07:07:44;;;;;;;20.75;9.55;;;;;;;12.04;100.00;100820.69;20798023;28;20461;-77
2022/10/08 07:17:45;;;;;;;18.85;9.30;;;;;;;12.11;100.00;100839.81;20781174;28;20049;-77
2022/10/08 07:27:47;;;;;;;17.60;8.55;;;;;;;12.17;100.00;100848.50;20825049;28;20111;-77
2022/10/08 07:37:48;;;;;;;14.77;8.65;;;;;;;12.35;100.00;100844.69;20821308;28;20061;-77
2022/10/08 07:47:49;;;;;;;19.70;8.18;;;;;;;12.54;100.00;100864.50;20814210;28;20041;-76
2022/10/08 07:57:51;;;;;;;12.07;6.85;;;;;;;13.00;100.00;100868.13;20835387;28;20045;-77
2022/10/08 08:07:52;;;;;;;13.32;5.40;;;;;;;13.38;100.00;100882.34;20817998;28;20149;-77
2022/10/08 08:17:53;;;;;;;11.02;4.93;;;;;;;13.59;100.00;100879.28;20834446;28;20049;-78
2022/10/08 08:27:55;;;;;;;14.40;4.15;;;;;;;13.64;100.00;100887.94;20849377;28;20050;-77
2022/10/08 08:37:56;;;;;;;11.95;3.55;;;;;;;13.88;100.00;100890.94;20855997;28;20121;-77
2022/10/08 08:47:59;;;;;;;10.70;3.22;;;;;;;14.21;100.00;100889.34;20861453;28;20061;-77
2022/10/08 08:58:00;;;;;;;13.20;2.60;;;;;;;14.51;100.00;100901.81;20835587;28;20192;-77
2022/10/08 09:08:04;;;;;;;11.45;2.80;;;;;;;14.97;100.00;100903.31;20861803;28;20075;-77
2022/10/08 09:18:05;;;;;;;11.80;2.50;;;;;;;14.97;100.00;100903.31;20850553;28;20033;-78
2022/10/08 09:28:06;;;;;;;7.20;2.78;;;;;;;15.20;100.00;100915.06;20838602;28;20037;-77
2022/10/08 09:38:08;;;;;;;11.95;2.70;;;;;;;15.25;100.00;100913.16;20841869;28;20442;-78
2022/10/08 09:48:09;;;;;;;10.25;2.47;;;;;;;15.37;100.00;100918.94;20821537;28;20076;-77
2022/10/08 09:58:10;;;;;;;10.55;2.60;;;;;;;15.58;100.00;100917.50;20841651;28;20052;-77
2022/10/08 10:08:12;;;;;;;6.53;1.40;;;;;;;15.91;95.84;100922.78;20815702;28;20072;-77
2022/10/08 10:18:13;;;;;;;9.02;1.95;;;;;;;16.22;94.87;100935.06;20830606;28;20041;-77
2022/10/08 10:28:14;;;;;;;9.68;1.70;;;;;;;16.35;92.36;100928.50;20816420;28;20092;-78
2022/10/08 10:38:16;;;;;;;6.97;1.40;;;;;;;17.13;87.96;100920.66;20840222;28;20049;-77
2022/10/08 10:48:17;;;;;;;8.32;1.80;;;;;;;17.01;84.63;100921.97;20849823;28;20065;-78
2022/10/08 10:58:18;;;;;;;6.85;1.50;;;;;;;17.38;84.11;100918.00;20824015;28;20057;-77
2022/10/08 11:08:20;;;;;;;4.32;1.23;;;;;;;17.75;80.34;100916.72;20839020;28;20041;-77
2022/10/08 11:18:21;;;;;;;6.68;1.40;;;;;;;17.84;79.47;100913.72;20828961;28;20039;-77
2022/10/08 11:28:23;;;;;;;4.80;1.00;;;;;;;17.88;76.32;100910.03;20807611;28;20049;-77
2022/10/08 11:38:24;;;;;;;2.90;0.52;;;;;;;17.64;73.53;100912.66;20835404;28;20058;-77
2022/10/08 11:48:25;;;;;;;3.92;0.80;;;;;;;17.53;60.16;100913.94;20809518;28;20065;-77
2022/10/08 11:58:27;;;;;;;5.65;0.70;;;;;;;17.56;60.02;100917.34;20817179;28;20519;-78
2022/10/08 12:08:28;;;;;;;3.20;0.93;;;;;;;17.66;62.47;100909.94;20816297;28;20053;-77
2022/10/08 12:18:30;;;;;;;5.82;1.15;;;;;;;18.05;60.75;100912.91;20803215;28;20410;-77
2022/10/08 12:28:31;;;;;;;5.28;1.15;;;;;;;18.00;60.09;100914.00;20820761;28;20045;-77
2022/10/08 12:38:32;;;;;;;6.88;1.10;;;;;;;18.01;62.46;100913.94;20819582;28;20501;-78
2022/10/08 12:48:34;;;;;;;3.10;0.90;;;;;;;17.65;63.59;100917.03;20835522;28;20038;-77
2022/10/08 12:58:36;;;;;;;3.65;1.02;;;;;;;17.60;64.46;100910.16;20826448;28;20115;-77
2022/10/08 13:08:37;;;;;;;3.70;1.25;;;;;;;17.97;62.30;100906.19;20829515;28;20149;-77
2022/10/08 13:18:40;;;;;;;5.45;1.05;;;;;;;17.52;66.00;100907.78;20833017;28;20051;-77
2022/10/08 13:28:41;;;;;;;4.20;1.20;;;;;;;17.65;64.24;100919.66;20822176;28;20037;-77
2022/10/08 13:39:00;;;;;;;8.80;1.30;;;;;;;17.79;63.29;100915.69;20822797;28;20561;-77
2022/10/08 13:49:02;;;;;;;4.00;1.20;;;;;;;17.53;65.24;100912.16;20829355;28;20485;-77
2022/10/08 13:59:04;;;;;;;6.47;1.00;;;;;;;17.87;65.36;100911.84;20824120;28;20513;-77
2022/10/08 14:09:05;;;;;;;7.68;1.10;;;;;;;17.49;65.25;100907.91;20825637;28;20506;-77
2022/10/08 14:19:07;;;;;;;3.78;0.75;;;;;;;17.60;64.68;100905.72;20831027;28;20042;-77
2022/10/08 14:29:12;;;;;;;4.07;1.00;;;;;;;17.48;64.28;100911.47;20829815;28;20042;-77
2022/10/08 14:39:13;;;;;;;6.35;1.05;;;;;;;17.71;65.41;100913.28;20809092;28;20079;-78
2022/10/08 14:49:15;;;;;;;4.45;1.17;;;;;;;17.57;64.63;100905.84;20820438;28;20046;-78
2022/10/08 14:59:17;;;;;;;4.13;0.82;;;;;;;17.63;64.71;100910.94;20839291;28;20052;-78
2022/10/08 15:09:18;;;;;;;4.43;0.88;;;;;;;17.37;65.61;100916.28;20855565;28;20061;-78
2022/10/08 15:19:20;;;;;;;4.35;1.10;;;;;;;17.13;68.03;100916.22;20824979;28;20037;-78
2022/10/08 15:29:24;;;;;;;7.23;1.20;;;;;;;16.91;70.16;100913.47;20833083;28;20061;-78
2022/10/08 15:39:25;;;;;;;4.30;0.90;;;;;;;16.62;71.99;100916.16;20840207;28;20415;-78
2022/10/08 15:49:26;;;;;;;39.45;5.28;;;;;;;16.41;74.44;100928.28;20828291;28;20092;-78
2022/10/08 15:59:28;;;;;;;3.60;1.30;;;;;;;16.13;77.42;100930.91;20821985;28;20045;-78
2022/10/08 16:09:29;;;;;;;6.88;1.30;;;;;;;16.03;77.56;100935.59;20824976;28;20549;-78
2022/10/08 16:19:31;;;;;;;11.00;3.95;;;;;;;15.94;79.85;100940.28;20813966;28;20053;-77
2022/10/08 16:29:32;;;;;;;8.75;2.20;;;;;;;15.53;92.15;100950.22;20835429;28;20045;-77
2022/10/08 16:39:33;;;;;;;9.50;2.20;;;;;;;14.93;100.00;100970.22;20824383;28;20052;-78
2022/10/08 16:49:34;;;;;;;10.88;4.78;;;;;;;14.58;100.00;100984.25;20830422;28;20486;-79
2022/10/08 16:59:36;;;;;;;6.63;1.77;;;;;;;14.33;100.00;100999.72;20822499;28;20410;-77
2022/10/08 17:09:37;;;;;;;11.23;2.65;;;;;;;14.15;100.00;101011.50;20854217;28;20088;-78
2022/10/08 17:19:38;;;;;;;9.38;2.67;;;;;;;13.98;100.00;101027.63;20846713;28;20487;-78
2022/10/08 17:29:40;;;;;;;10.52;3.15;;;;;;;13.85;100.00;101040.16;20841990;28;20402;-78
2022/10/08 17:39:41;;;;;;;8.65;2.20;;;;;;;13.52;100.00;101057.44;20808100;28;20088;-78
2022/10/08 17:49:43;;;;;;;7.50;2.38;;;;;;;13.26;100.00;101075.41;20825367;28;20575;-77
2022/10/08 17:59:44;;;;;;;8.77;2.70;;;;;;;13.04;100.00;101078.34;20826573;28;20041;-77
2022/10/08 18:09:46;;;;;;;10.38;4.18;;;;;;;12.82;100.00;101084.78;20823009;28;20090;-77
2022/10/08 18:19:47;;;;;;;9.68;4.88;;;;;;;12.54;100.00;101100.91;20848115;28;20152;-78
2022/10/08 18:29:49;;;;;;;12.77;4.72;;;;;;;12.10;100.00;101108.44;20831620;28;20073;-77
2022/10/08 18:50:01;;;;;;;11.57;4.25;;;;;;;11.65;100.00;101131.59;20483292;28;20055;-69
2022/10/08 19:00:03;;;;;;;12.43;4.50;;;;;;;11.64;100.00;101140.31;20481765;28;20054;-70
2022/10/08 19:10:04;;;;;;;9.73;2.97;;;;;;;11.31;100.00;101160.69;20474727;29;20122;-69
2022/10/08 19:20:05;;;;;;;10.13;3.75;;;;;;;11.23;100.00;101162.50;20480065;28;20469;-69
2022/10/08 19:30:09;;;;;;;12.30;4.13;;;;;;;11.06;100.00;101167.81;20480425;28;20046;-69
2022/10/08 19:40:10;;;;;;;7.93;3.88;;;;;;;10.94;100.00;101181.00;20481888;28;20059;-69
2022/10/08 19:50:11;;;;;;;12.10;4.63;;;;;;;10.76;100.00;101188.03;20485926;28;20102;-69
2022/10/08 20:00:13;;;;;;;10.55;4.45;;;;;;;10.64;100.00;101195.09;20499855;28;20496;-69
2022/10/08 20:10:16;;;;;;;16.60;5.85;;;;;;;10.42;100.00;101200.38;20477987;28;20086;-69
2022/10/08 20:20:18;;;;;;;8.55;5.45;;;;;;;10.30;100.00;101208.28;20500682;28;20110;-68
2022/10/08 20:30:33;;;;;;;10.38;5.68;;;;;;;10.23;100.00;101211.72;20528952;28;20046;-69
2022/10/08 20:40:34;;;;;;;13.57;4.97;;;;;;;10.15;100.00;101221.31;20579731;28;20043;-70
2022/10/08 20:50:35;;;;;;;10.75;4.72;;;;;;;9.85;100.00;101228.31;20579121;28;20615;-70
2022/10/08 21:00:37;;;;;;;15.35;6.82;;;;;;;9.73;100.00;101242.25;20576767;28;20054;-70
2022/10/08 21:10:38;;;;;;;13.75;5.28;;;;;;;9.48;100.00;101251.78;20566056;28;20389;-71
2022/10/08 21:20:39;;;;;;;17.98;6.15;;;;;;;9.48;100.00;101251.78;20499072;28;20055;-70
2022/10/08 21:30:41;;;;;;;11.57;5.53;;;;;;;9.38;100.00;101255.22;20526400;28;20049;-70
2022/10/08 21:40:42;;;;;;;19.52;6.25;;;;;;;9.37;100.00;101263.94;20575897;28;20051;-70
2022/10/08 21:50:44;;;;;;;15.25;5.53;;;;;;;9.42;100.00;101253.50;20576998;28;20419;-71
2022/10/08 22:00:45;;;;;;;13.93;4.82;;;;;;;9.31;100.00;101260.47;20564198;28;20039;-72
2022/10/08 22:10:46;;;;;;;14.07;5.03;;;;;;;9.16;100.00;101261.28;20500662;28;20054;-71
2022/10/08 22:20:48;;;;;;;9.35;5.05;;;;;;;9.15;100.00;101264.72;20499857;28;20469;-71
2022/10/08 22:30:49;;;;;;;11.23;5.13;;;;;;;9.10;100.00;101261.22;20530155;28;20046;-73
2022/10/08 22:40:51;;;;;;;11.80;5.28;;;;;;;9.01;100.00;101251.63;20579692;28;20051;-72
2022/10/08 22:50:52;;;;;;;15.23;6.47;;;;;;;8.94;100.00;101247.25;20578185;28;20047;-69
2022/10/08 23:00:53;;;;;;;14.70;7.25;;;;;;;8.95;100.00;101256.81;20576008;28;20047;-70
2022/10/08 23:10:55;;;;;;;15.82;7.55;;;;;;;8.86;100.00;101249.84;20575749;28;20046;-70
2022/10/08 23:20:56;;;;;;;17.52;7.80;;;;;;;8.78;100.00;101248.91;20576170;28;20510;-69
2022/10/08 23:30:57;;;;;;;17.60;8.77;;;;;;;8.76;100.00;101245.41;20542376;28;20070;-70
2022/10/08 23:40:59;;;;;;;18.25;9.38;;;;;;;8.67;100.00;101253.19;20495242;29;20051;-72
2022/10/08 23:51:00;;;;;;;22.65;10.13;;;;;;;8.55;100.00;101237.47;20494943;29;20102;-72
